createdAt,value
2022-11-27T00:01:39.322Z,6.00
2022-11-27T00:08:30.429Z,5.80
2022-11-27T00:14:29.069Z,5.60
2022-11-27T00:17:31.480Z,5.80
2022-11-27T00:20:08.903Z,6.10
2022-11-27T00:22:39.251Z,6.10
2022-11-27T00:32:30.306Z,6.30
2022-11-27T00:51:38.597Z,6.20
2022-11-27T00:54:07.802Z,6.00
2022-11-27T00:56:40.428Z,6.00
2022-11-27T01:00:17.328Z,5.80
2022-11-27T01:02:56.022Z,5.80
2022-11-27T01:05:24.195Z,6.00
2022-11-27T01:07:53.414Z,6.00
2022-11-27T01:10:25.579Z,6.00
2022-11-27T01:16:18.928Z,5.90
2022-11-27T01:18:48.517Z,5.80
2022-11-27T01:44:25.924Z,5.40
2022-11-27T01:47:22.020Z,5.40
2022-11-27T01:53:27.074Z,5.60
2022-11-27T01:56:04.367Z,5.70
2022-11-27T01:59:10.010Z,5.90
2022-11-27T02:02:17.122Z,6.00
2022-11-27T02:04:45.645Z,6.10
2022-11-27T02:08:09.705Z,6.20
2022-11-27T02:11:40.043Z,6.40
2022-11-27T02:15:11.857Z,6.60
2022-11-27T02:38:44.984Z,5.40
2022-11-27T02:44:20.241Z,5.40
2022-11-27T02:46:52.947Z,5.40
2022-11-27T02:49:24.488Z,5.50
2022-11-27T02:58:38.988Z,6.10
2022-11-27T03:01:11.141Z,6.30
2022-11-27T03:10:06.321Z,6.10
2022-11-27T03:12:34.163Z,5.90
2022-11-27T03:18:24.675Z,5.60
2022-11-27T03:23:58.876Z,5.40
2022-11-27T03:29:58.380Z,5.50
2022-11-27T03:33:30.844Z,5.40
2022-11-27T03:35:58.856Z,5.40
2022-11-27T03:50:00.229Z,5.50
2022-11-27T03:55:56.145Z,5.40
2022-11-27T04:01:28.546Z,5.50
2022-11-27T04:12:00.692Z,5.30
2022-11-27T04:14:29.724Z,5.30
2022-11-27T04:31:17.994Z,5.30
2022-11-27T04:38:06.005Z,5.00
2022-11-27T04:40:34.103Z,5.00
2022-11-27T04:43:03.307Z,5.10
2022-11-27T04:46:34.406Z,5.10
2022-11-27T04:49:04.725Z,5.20
2022-11-27T04:51:58.545Z,5.30
2022-11-27T04:55:08.193Z,5.20
2022-11-27T04:57:36.035Z,5.10
2022-11-27T05:00:07.909Z,5.00
2022-11-27T05:07:23.263Z,5.20
2022-11-27T05:10:07.909Z,5.20
2022-11-27T05:15:38.701Z,5.10
2022-11-27T05:18:52.910Z,5.00
2022-11-27T05:21:20.655Z,4.90
2022-11-27T05:24:09.556Z,5.00
2022-11-27T05:32:48.586Z,5.30
2022-11-27T05:35:21.431Z,5.20
2022-11-27T05:37:49.448Z,5.30
2022-11-27T05:43:40.154Z,5.00
2022-11-27T05:46:10.218Z,4.90
2022-11-27T05:49:55.114Z,4.80
2022-11-27T05:53:22.595Z,4.90
2022-11-27T06:00:28.378Z,4.70
2022-11-27T06:22:50.114Z,4.20
2022-11-27T06:25:24.275Z,4.10
2022-11-27T06:29:31.143Z,4.10
2022-11-27T06:33:31.047Z,4.20
2022-11-27T06:36:01.578Z,4.40
2022-11-27T06:43:26.103Z,4.50
2022-11-27T06:47:02.222Z,4.50
2022-11-27T06:49:30.199Z,4.30
2022-11-27T06:54:57.625Z,4.40
2022-11-27T06:58:31.069Z,4.50
2022-11-27T07:01:30.981Z,4.80
2022-11-27T07:05:24.692Z,5.80
2022-11-27T07:08:04.843Z,6.70
2022-11-27T07:11:13.201Z,7.10
2022-11-27T07:21:14.736Z,6.40
2022-11-27T07:28:03.484Z,8.10
2022-11-27T07:30:31.282Z,9.10
2022-11-27T07:32:59.536Z,9.70
2022-11-27T07:35:31.452Z,9.90
2022-11-27T07:38:09.135Z,10.20
2022-11-27T07:43:30.561Z,10.00
2022-11-27T07:46:33.514Z,9.60
2022-11-27T07:49:09.204Z,9.20
2022-11-27T07:51:39.584Z,9.00
2022-11-27T07:54:07.282Z,8.30
2022-11-27T07:56:35.116Z,7.90
2022-11-27T07:59:14.239Z,7.60
2022-11-27T08:01:45.003Z,7.50
2022-11-27T08:04:13.920Z,7.50
2022-11-27T08:06:51.182Z,7.50
2022-11-27T08:09:20.507Z,7.50
2022-11-27T08:12:02.070Z,7.50
2022-11-27T08:14:34.510Z,7.40
2022-11-27T08:17:38.339Z,7.40
2022-11-27T08:20:19.631Z,7.90
2022-11-27T08:34:46.836Z,8.30
2022-11-27T08:37:32.634Z,8.30
2022-11-27T08:51:03.696Z,8.90
2022-11-27T08:53:32.666Z,9.10
2022-11-27T08:56:27.456Z,9.30
2022-11-27T08:58:57.772Z,9.40
2022-11-27T09:01:28.514Z,9.40
2022-11-27T09:04:11.325Z,9.60
2022-11-27T09:06:41.465Z,9.70
2022-11-27T09:09:09.502Z,9.70
2022-11-27T09:11:37.703Z,9.70
2022-11-27T09:14:09.734Z,9.90
2022-11-27T09:16:52.480Z,10.10
2022-11-27T09:19:38.787Z,10.20
2022-11-27T09:22:15.372Z,10.20
2022-11-27T09:24:53.904Z,10.50
2022-11-27T09:27:28.767Z,10.80
2022-11-27T09:30:00.123Z,11.10
2022-11-27T09:32:33.471Z,11.30
2022-11-27T09:35:01.221Z,11.50
2022-11-27T09:37:28.989Z,11.70
2022-11-27T09:39:56.561Z,11.70
2022-11-27T09:42:30.660Z,11.70
2022-11-27T09:45:00.320Z,11.80
2022-11-27T09:47:52.412Z,11.80
2022-11-27T09:50:26.172Z,11.80
2022-11-27T09:52:59.759Z,12.00
2022-11-27T09:55:46.402Z,12.10
2022-11-27T09:58:36.689Z,12.20
2022-11-27T10:01:18.187Z,11.90
2022-11-27T10:03:46.509Z,12.10
2022-11-27T10:06:28.135Z,12.10
2022-11-27T10:09:22.034Z,12.30
2022-11-27T10:12:02.577Z,12.30
2022-11-27T10:14:51.315Z,12.30
2022-11-27T10:17:33.038Z,12.30
2022-11-27T10:20:29.251Z,12.40
2022-11-27T10:23:01.253Z,12.50
2022-11-27T10:25:52.074Z,12.50
2022-11-27T10:28:44.602Z,12.70
2022-11-27T10:31:41.842Z,12.90
2022-11-27T10:34:30.496Z,12.80
2022-11-27T10:37:08.086Z,12.90
2022-11-27T10:39:42.713Z,12.90
2022-11-27T10:42:13.451Z,12.80
2022-11-27T10:44:52.257Z,12.80
2022-11-27T10:47:23.275Z,12.90
2022-11-27T10:49:51.206Z,12.80
2022-11-27T10:52:20.297Z,12.90
2022-11-27T10:54:56.458Z,13.00
2022-11-27T10:57:39.251Z,13.00
2022-11-27T11:00:15.700Z,13.10
2022-11-27T11:02:49.167Z,13.20
2022-11-27T11:08:20.906Z,13.30
2022-11-27T11:11:07.493Z,13.30
2022-11-27T11:13:41.304Z,13.20
2022-11-27T11:16:14.722Z,13.20
2022-11-27T11:18:45.274Z,13.20
2022-11-27T11:21:26.382Z,13.20
2022-11-27T11:24:01.062Z,13.20
2022-11-27T11:26:34.349Z,13.20
2022-11-27T11:29:05.286Z,13.30
2022-11-27T11:31:46.609Z,13.20
2022-11-27T11:35:00.639Z,13.30
2022-11-27T11:37:42.425Z,13.30
2022-11-27T11:40:31.770Z,13.40
2022-11-27T11:43:24.284Z,13.40
2022-11-27T11:46:05.291Z,13.30
2022-11-27T11:48:37.252Z,13.40
2022-11-27T11:51:17.675Z,13.40
2022-11-27T11:54:07.420Z,13.50
2022-11-27T11:56:42.959Z,13.60
2022-11-27T11:59:30.565Z,13.60
2022-11-27T12:02:28.621Z,13.70
2022-11-27T12:05:30.916Z,13.90
2022-11-27T12:08:25.190Z,14.00
2022-11-27T12:11:17.611Z,14.20
2022-11-27T12:14:16.547Z,14.60
2022-11-27T12:17:04.620Z,15.10
2022-11-27T12:20:08.079Z,15.50
2022-11-27T12:22:55.415Z,15.60
2022-11-27T12:26:00.320Z,15.50
2022-11-27T12:28:57.499Z,15.10
2022-11-27T12:32:05.513Z,14.40
2022-11-27T12:34:38.003Z,14.00
2022-11-27T12:37:47.802Z,13.90
2022-11-27T12:40:51.831Z,13.80
2022-11-27T12:43:47.307Z,13.60
2022-11-27T12:46:19.296Z,13.70
2022-11-27T12:49:06.138Z,13.60
2022-11-27T12:51:57.889Z,13.80
2022-11-27T12:55:13.006Z,14.00
2022-11-27T12:58:11.639Z,14.10
2022-11-27T13:00:44.799Z,14.30
2022-11-27T13:06:24.179Z,14.10
2022-11-27T13:09:10.688Z,14.00
2022-11-27T13:11:40.932Z,14.00
2022-11-27T13:14:52.797Z,14.00
2022-11-27T13:17:56.774Z,14.00
2022-11-27T13:20:39.645Z,14.00
2022-11-27T13:23:11.462Z,13.80
2022-11-27T13:25:50.275Z,13.70
2022-11-27T13:28:25.241Z,13.80
2022-11-27T13:30:54.554Z,13.80
2022-11-27T13:33:40.691Z,13.70
2022-11-27T13:36:35.712Z,13.50
2022-11-27T13:39:04.349Z,13.30
2022-11-27T13:41:40.661Z,13.40
2022-11-27T13:44:28.702Z,13.30
2022-11-27T13:47:04.795Z,13.30
2022-11-27T13:49:41.513Z,13.30
2022-11-27T13:52:17.308Z,13.30
2022-11-27T13:54:56.985Z,13.20
2022-11-27T13:57:34.856Z,13.10
2022-11-27T14:00:19.339Z,13.00
2022-11-27T14:02:50.558Z,13.30
2022-11-27T14:05:21.233Z,13.30
2022-11-27T14:07:50.632Z,13.20
2022-11-27T14:10:30.467Z,13.20
2022-11-27T14:13:02.701Z,13.20
2022-11-27T14:15:33.103Z,13.40
2022-11-27T14:18:19.550Z,13.80
2022-11-27T14:21:01.411Z,14.50
2022-11-27T14:23:35.686Z,15.00
2022-11-27T14:26:15.789Z,15.00
2022-11-27T14:28:48.909Z,14.50
2022-11-27T14:31:33.276Z,14.30
2022-11-27T14:34:20.803Z,14.20
2022-11-27T14:36:53.984Z,14.40
2022-11-27T14:39:45.675Z,14.60
2022-11-27T14:42:28.628Z,14.70
2022-11-27T14:45:07.246Z,14.50
2022-11-27T14:47:45.223Z,14.30
2022-11-27T14:50:15.170Z,13.70
2022-11-27T14:52:44.751Z,13.30
2022-11-27T14:55:19.830Z,12.90
2022-11-27T14:57:49.702Z,12.60
2022-11-27T15:10:05.984Z,12.20
2022-11-27T15:12:45.491Z,11.80
2022-11-27T15:15:29.612Z,11.40
2022-11-27T15:18:07.824Z,11.00
2022-11-27T15:20:48.028Z,10.80
2022-11-27T15:27:10.168Z,10.10
2022-11-27T15:30:14.532Z,9.70
2022-11-27T15:33:19.890Z,9.70
2022-11-27T15:35:59.617Z,9.60
2022-11-27T15:57:38.800Z,8.90
2022-11-27T16:00:25.552Z,9.00
2022-11-27T16:03:15.600Z,9.20
2022-11-27T16:06:00.885Z,9.30
2022-11-27T16:11:48.382Z,9.10
2022-11-27T16:17:44.011Z,9.40
2022-11-27T16:20:22.621Z,9.20
2022-11-27T16:22:53.461Z,9.20
2022-11-27T16:25:21.365Z,9.30
2022-11-27T16:27:52.067Z,9.20
2022-11-27T16:30:55.433Z,9.10
2022-11-27T16:33:30.835Z,9.10
2022-11-27T16:36:21.091Z,9.10
2022-11-27T16:38:55.264Z,9.10
2022-11-27T16:41:37.375Z,9.10
2022-11-27T16:47:44.981Z,9.10
2022-11-27T16:50:34.453Z,9.00
2022-11-27T16:53:16.827Z,8.90
2022-11-27T16:55:48.986Z,8.90
2022-11-27T16:58:17.070Z,8.90
2022-11-27T17:00:48.324Z,8.90
2022-11-27T17:03:18.843Z,8.90
2022-11-27T17:05:51.330Z,8.80
2022-11-27T17:12:01.322Z,8.60
2022-11-27T17:14:32.041Z,8.50
2022-11-27T17:17:00.047Z,8.30
2022-11-27T17:19:40.172Z,8.40
2022-11-27T17:22:17.770Z,8.40
2022-11-27T17:24:48.163Z,8.20
2022-11-27T17:27:16.492Z,8.10
2022-11-27T17:29:44.825Z,7.80
2022-11-27T17:32:18.515Z,7.40
2022-11-27T17:35:43.218Z,7.10
2022-11-27T17:46:03.190Z,7.00
2022-11-27T17:53:10.006Z,6.90
2022-11-27T17:55:42.836Z,7.00
2022-11-27T17:58:10.841Z,7.40
2022-11-27T18:00:41.232Z,7.50
2022-11-27T18:03:10.467Z,7.30
2022-11-27T18:05:51.968Z,7.00
2022-11-27T18:08:19.902Z,7.00
2022-11-27T18:20:04.733Z,7.10
2022-11-27T19:07:36.761Z,6.30
2022-11-27T19:57:19.791Z,6.30
2022-11-27T20:10:12.602Z,6.00
2022-11-27T20:16:03.750Z,5.80
2022-11-27T20:18:37.504Z,5.70
2022-11-27T21:21:48.576Z,5.70
2022-11-27T21:38:01.606Z,5.40
2022-11-27T21:46:44.501Z,5.50
2022-11-27T21:49:32.023Z,5.60
2022-11-27T21:52:04.826Z,5.90
2022-11-27T21:54:40.029Z,6.10
2022-11-27T21:58:04.732Z,6.20
2022-11-27T22:01:14.306Z,6.20
2022-11-27T22:04:38.217Z,6.00
2022-11-27T22:14:51.830Z,5.40
2022-11-27T22:31:21.426Z,5.30
2022-11-27T22:38:25.213Z,5.30
2022-11-27T22:47:58.361Z,5.00
2022-11-27T22:51:06.680Z,5.20
2022-11-27T22:53:36.748Z,5.40
2022-11-27T22:56:21.044Z,5.60
2022-11-27T23:08:47.836Z,5.60
2022-11-27T23:11:51.321Z,5.60
2022-11-27T23:18:25.335Z,5.20
2022-11-27T23:21:20.647Z,4.90
2022-11-27T23:47:23.942Z,5.60
2022-11-27T23:50:09.090Z,5.60
2022-11-27T23:53:36.499Z,5.70
